메인 페이지
METAR-TAF:

METAR-TAF

공항 :

앨리스 스프링스 공항

앨리스스프링스, 오스트레일리아

위도: 23-48S, 경도: 133-53E, 고도: 545m

현재 날씨관측

예보는 22분 전, 14:30시(UTC)에 발표되었습니다.
무풍
온도 14°C
습도 58%
기압 1022 hPa
시정 10km 이상

METAR: YBAS 141430Z AUTO 00000KT 9999 // NCD 14/06 Q1022 RF00.0/000.0

시각: 00:22 (14:52 UTC)

예보

예보는 3 시간 51분 전, 11:01시(UTC)에 발표되었습니다.
예보 대상 시간: 14일 12시부터 15일 12시까지 (UTC)
동남동5kt
시정 10km 이상
1500m 미만 상공 구름 및 적란운 없음
14일 1400시부터 (UTC)
서북서5kt
시정 10km 이상
1500m 미만 상공 구름 및 적란운 없음
14일 2300시부터 (UTC)
10kt
시정 10km 이상
1500m 미만 상공 구름 및 적란운 없음
15일 0200시부터 (UTC)
남남동11kt
시정 10km 이상
1500m 미만 상공 구름 및 적란운 없음
15일 0900시부터 (UTC)
남남동6kt
시정 10km 이상
1500m 미만 상공 구름 및 적란운 없음

TAF: YBAS 141101Z 1412/1512 12005KT CAVOK FM141400 30005KT CAVOK FM142300 10010KT CAVOK FM150200 15011KT CAVOK FM150900 15006KT CAVOK

4,000개 이상의 공항 관측 자료 및 예보 (METAR 및 TAF 보고).

지도상에서 검색 가능한 기상관측소가 노란 점과 빨간 점으로 표시되어 있습니다.

기상관측소 명을 보려면 표시 위로 마우스를 이동하세요.

날씨 관측과 예보를 보려면 클릭하세요.

지도 변경 : 확대하려면 엑스 표시가 있는 녹색 버튼, 축소하려면 빼기 표시가 있는 녹색 버튼, 다음 페이지의 지도를 보려면 녹색 화살표를 클릭하세요.


METAR-TAF: